sensor_id;sensor_type;location;lat;lon;timestamp;P1;durP1;ratioP1;P2;durP2;ratioP2
434;SDS011;204;48.942;9.256;2023-05-10T00:01:37;1.23;;;1.10;;
434;SDS011;204;48.942;9.256;2023-05-10T00:04:02;0.90;;;0.80;;
434;SDS011;204;48.942;9.256;2023-05-10T00:06:28;4.35;;;1.35;;
434;SDS011;204;48.942;9.256;2023-05-10T00:08:54;2.33;;;0.80;;
434;SDS011;204;48.942;9.256;2023-05-10T00:11:20;3.40;;;1.10;;
434;SDS011;204;48.942;9.256;2023-05-10T00:13:46;1.03;;;0.97;;
434;SDS011;204;48.942;9.256;2023-05-10T00:16:12;2.17;;;1.00;;
434;SDS011;204;48.942;9.256;2023-05-10T00:18:38;2.20;;;0.83;;
434;SDS011;204;48.942;9.256;2023-05-10T00:21:04;1.25;;;1.15;;
434;SDS011;204;48.942;9.256;2023-05-10T00:23:30;1.00;;;0.77;;
434;SDS011;204;48.942;9.256;2023-05-10T00:25:55;0.90;;;0.77;;
434;SDS011;204;48.942;9.256;2023-05-10T00:28:21;1.50;;;0.60;;
434;SDS011;204;48.942;9.256;2023-05-10T00:30:47;1.40;;;0.50;;
434;SDS011;204;48.942;9.256;2023-05-10T00:33:12;1.03;;;0.60;;
434;SDS011;204;48.942;9.256;2023-05-10T00:35:38;0.50;;;0.50;;
434;SDS011;204;48.942;9.256;2023-05-10T00:38:04;2.63;;;0.70;;
434;SDS011;204;48.942;9.256;2023-05-10T00:40:29;0.57;;;0.50;;
434;SDS011;204;48.942;9.256;2023-05-10T00:42:55;0.90;;;0.50;;
434;SDS011;204;48.942;9.256;2023-05-10T00:45:21;1.35;;;0.55;;
434;SDS011;204;48.942;9.256;2023-05-10T00:47:48;0.65;;;0.57;;
434;SDS011;204;48.942;9.256;2023-05-10T00:50:14;0.55;;;0.52;;
434;SDS011;204;48.942;9.256;2023-05-10T00:52:40;0.60;;;0.40;;
434;SDS011;204;48.942;9.256;2023-05-10T00:55:07;1.45;;;0.80;;
434;SDS011;204;48.942;9.256;2023-05-10T00:57:34;0.70;;;0.60;;
434;SDS011;204;48.942;9.256;2023-05-10T01:00:00;0.80;;;0.43;;
434;SDS011;204;48.942;9.256;2023-05-10T01:02:27;0.40;;;0.40;;
434;SDS011;204;48.942;9.256;2023-05-10T01:04:52;0.83;;;0.77;;
434;SDS011;204;48.942;9.256;2023-05-10T01:07:19;0.70;;;0.60;;
434;SDS011;204;48.942;9.256;2023-05-10T01:09:44;1.33;;;0.70;;
434;SDS011;204;48.942;9.256;2023-05-10T01:12:10;0.90;;;0.80;;
434;SDS011;204;48.942;9.256;2023-05-10T01:14:36;1.00;;;0.90;;
434;SDS011;204;48.942;9.256;2023-05-10T01:17:02;0.83;;;0.80;;
434;SDS011;204;48.942;9.256;2023-05-10T01:19:29;0.93;;;0.82;;
434;SDS011;204;48.942;9.256;2023-05-10T01:28:57;2.75;;;1.27;;
434;SDS011;204;48.942;9.256;2023-05-10T01:31:18;1.60;;;1.50;;
434;SDS011;204;48.942;9.256;2023-05-10T01:33:52;1.35;;;1.25;;
434;SDS011;204;48.942;9.256;2023-05-10T01:38:53;1.50;;;1.40;;
434;SDS011;204;48.942;9.256;2023-05-10T01:43:53;1.45;;;1.23;;
434;SDS011;204;48.942;9.256;2023-05-10T01:46:26;4.63;;;1.85;;
434;SDS011;204;48.942;9.256;2023-05-10T01:48:58;1.40;;;1.30;;
434;SDS011;204;48.942;9.256;2023-05-10T01:51:26;1.90;;;1.80;;
434;SDS011;204;48.942;9.256;2023-05-10T01:53:59;3.35;;;1.40;;
434;SDS011;204;48.942;9.256;2023-05-10T01:56:28;1.73;;;1.63;;
434;SDS011;204;48.942;9.256;2023-05-10T01:58:56;1.70;;;1.60;;
434;SDS011;204;48.942;9.256;2023-05-10T02:01:23;1.70;;;1.60;;
434;SDS011;204;48.942;9.256;2023-05-10T02:03:51;3.63;;;1.58;;
434;SDS011;204;48.942;9.256;2023-05-10T02:06:18;2.03;;;1.90;;
434;SDS011;204;48.942;9.256;2023-05-10T02:08:47;2.20;;;1.95;;
434;SDS011;204;48.942;9.256;2023-05-10T02:11:15;1.90;;;1.80;;
434;SDS011;204;48.942;9.256;2023-05-10T02:13:46;2.00;;;1.90;;
434;SDS011;204;48.942;9.256;2023-05-10T02:16:14;2.30;;;2.10;;
434;SDS011;204;48.942;9.256;2023-05-10T02:18:42;1.77;;;1.67;;
434;SDS011;204;48.942;9.256;2023-05-10T02:21:08;2.00;;;1.83;;
434;SDS011;204;48.942;9.256;2023-05-10T02:23:35;2.58;;;1.60;;
434;SDS011;204;48.942;9.256;2023-05-10T02:26:02;2.00;;;1.90;;
434;SDS011;204;48.942;9.256;2023-05-10T02:28:28;2.25;;;1.45;;
434;SDS011;204;48.942;9.256;2023-05-10T02:30:55;1.42;;;1.38;;
434;SDS011;204;48.942;9.256;2023-05-10T02:33:21;1.80;;;1.70;;
434;SDS011;204;48.942;9.256;2023-05-10T02:35:48;1.90;;;1.80;;
434;SDS011;204;48.942;9.256;2023-05-10T02:38:15;2.63;;;1.90;;
434;SDS011;204;48.942;9.256;2023-05-10T02:40:43;1.80;;;1.70;;
434;SDS011;204;48.942;9.256;2023-05-10T02:43:12;1.65;;;1.55;;
434;SDS011;204;48.942;9.256;2023-05-10T02:45:39;2.85;;;1.60;;
434;SDS011;204;48.942;9.256;2023-05-10T02:48:06;3.75;;;2.40;;
434;SDS011;204;48.942;9.256;2023-05-10T02:50:33;6.43;;;2.95;;
434;SDS011;204;48.942;9.256;2023-05-10T02:53:00;2.85;;;1.95;;
434;SDS011;204;48.942;9.256;2023-05-10T02:55:31;3.58;;;2.08;;
434;SDS011;204;48.942;9.256;2023-05-10T02:58:05;1.85;;;1.75;;
434;SDS011;204;48.942;9.256;2023-05-10T03:00:30;1.73;;;1.63;;
434;SDS011;204;48.942;9.256;2023-05-10T03:02:56;1.87;;;1.77;;
434;SDS011;204;48.942;9.256;2023-05-10T03:05:22;1.90;;;1.80;;
434;SDS011;204;48.942;9.256;2023-05-10T03:07:48;1.98;;;1.88;;
434;SDS011;204;48.942;9.256;2023-05-10T03:10:14;3.35;;;1.90;;
434;SDS011;204;48.942;9.256;2023-05-10T03:15:21;2.13;;;1.90;;
434;SDS011;204;48.942;9.256;2023-05-10T03:20:50;2.00;;;1.90;;
434;SDS011;204;48.942;9.256;2023-05-10T03:25:54;1.90;;;1.80;;
434;SDS011;204;48.942;9.256;2023-05-10T03:28:21;1.70;;;1.60;;
434;SDS011;204;48.942;9.256;2023-05-10T03:30:49;2.38;;;2.15;;
434;SDS011;204;48.942;9.256;2023-05-10T03:33:18;2.10;;;1.95;;
434;SDS011;204;48.942;9.256;2023-05-10T03:35:44;2.65;;;2.05;;
434;SDS011;204;48.942;9.256;2023-05-10T03:38:11;2.20;;;2.00;;
434;SDS011;204;48.942;9.256;2023-05-10T03:40:39;2.75;;;2.00;;
434;SDS011;204;48.942;9.256;2023-05-10T03:43:05;3.33;;;2.00;;
434;SDS011;204;48.942;9.256;2023-05-10T03:45:30;2.70;;;2.30;;
434;SDS011;204;48.942;9.256;2023-05-10T03:47:56;2.70;;;2.37;;
434;SDS011;204;48.942;9.256;2023-05-10T03:50:23;2.53;;;2.33;;
434;SDS011;204;48.942;9.256;2023-05-10T03:52:49;3.30;;;2.40;;
434;SDS011;204;48.942;9.256;2023-05-10T03:55:15;2.80;;;2.60;;
434;SDS011;204;48.942;9.256;2023-05-10T03:57:41;4.53;;;3.95;;
434;SDS011;204;48.942;9.256;2023-05-10T04:00:07;2.60;;;2.40;;
434;SDS011;204;48.942;9.256;2023-05-10T04:02:33;3.17;;;2.92;;
434;SDS011;204;48.942;9.256;2023-05-10T04:04:58;2.80;;;2.60;;
434;SDS011;204;48.942;9.256;2023-05-10T04:07:24;4.93;;;3.50;;
434;SDS011;204;48.942;9.256;2023-05-10T04:09:49;3.27;;;2.73;;
434;SDS011;204;48.942;9.256;2023-05-10T04:12:15;3.43;;;3.23;;
434;SDS011;204;48.942;9.256;2023-05-10T04:14:41;3.60;;;3.40;;
434;SDS011;204;48.942;9.256;2023-05-10T04:17:06;8.00;;;3.43;;
434;SDS011;204;48.942;9.256;2023-05-10T04:19:32;3.67;;;3.47;;
434;SDS011;204;48.942;9.256;2023-05-10T04:21:58;3.43;;;3.23;;
434;SDS011;204;48.942;9.256;2023-05-10T04:24:24;3.40;;;3.20;;
434;SDS011;204;48.942;9.256;2023-05-10T04:26:50;3.77;;;3.60;;
434;SDS011;204;48.942;9.256;2023-05-10T04:29:15;3.33;;;3.13;;
434;SDS011;204;48.942;9.256;2023-05-10T04:31:41;4.40;;;4.10;;
434;SDS011;204;48.942;9.256;2023-05-10T04:34:07;3.40;;;3.20;;
434;SDS011;204;48.942;9.256;2023-05-10T04:36:32;4.37;;;4.07;;
434;SDS011;204;48.942;9.256;2023-05-10T04:39:00;4.40;;;4.10;;
434;SDS011;204;48.942;9.256;2023-05-10T04:41:27;4.55;;;4.25;;
434;SDS011;204;48.942;9.256;2023-05-10T04:43:53;5.63;;;3.70;;
434;SDS011;204;48.942;9.256;2023-05-10T04:46:19;4.87;;;4.43;;
434;SDS011;204;48.942;9.256;2023-05-10T04:48:44;5.07;;;4.77;;
434;SDS011;204;48.942;9.256;2023-05-10T04:51:10;4.73;;;4.40;;
434;SDS011;204;48.942;9.256;2023-05-10T04:53:36;3.83;;;3.63;;
434;SDS011;204;48.942;9.256;2023-05-10T04:56:01;3.40;;;3.20;;
434;SDS011;204;48.942;9.256;2023-05-10T04:58:27;4.37;;;3.67;;
434;SDS011;204;48.942;9.256;2023-05-10T05:00:53;2.97;;;2.77;;
434;SDS011;204;48.942;9.256;2023-05-10T05:03:18;3.67;;;3.50;;
434;SDS011;204;48.942;9.256;2023-05-10T05:05:44;3.93;;;3.50;;
434;SDS011;204;48.942;9.256;2023-05-10T05:08:10;4.20;;;3.20;;
434;SDS011;204;48.942;9.256;2023-05-10T05:10:36;4.28;;;3.97;;
434;SDS011;204;48.942;9.256;2023-05-10T05:13:02;3.53;;;3.33;;
434;SDS011;204;48.942;9.256;2023-05-10T05:15:27;3.50;;;3.30;;
434;SDS011;204;48.942;9.256;2023-05-10T05:17:53;5.63;;;2.97;;
434;SDS011;204;48.942;9.256;2023-05-10T05:20:19;4.17;;;2.90;;
434;SDS011;204;48.942;9.256;2023-05-10T05:22:44;4.03;;;3.43;;
434;SDS011;204;48.942;9.256;2023-05-10T05:25:10;3.93;;;3.73;;
434;SDS011;204;48.942;9.256;2023-05-10T05:27:36;3.50;;;3.30;;
434;SDS011;204;48.942;9.256;2023-05-10T05:30:02;3.90;;;3.70;;
434;SDS011;204;48.942;9.256;2023-05-10T05:32:28;3.13;;;2.93;;
434;SDS011;204;48.942;9.256;2023-05-10T05:34:53;2.70;;;2.50;;
434;SDS011;204;48.942;9.256;2023-05-10T05:37:19;2.63;;;2.42;;
434;SDS011;204;48.942;9.256;2023-05-10T05:39:46;3.10;;;2.90;;
434;SDS011;204;48.942;9.256;2023-05-10T05:42:12;3.17;;;2.77;;
434;SDS011;204;48.942;9.256;2023-05-10T05:44:38;3.93;;;3.07;;
434;SDS011;204;48.942;9.256;2023-05-10T05:47:04;3.30;;;3.10;;
434;SDS011;204;48.942;9.256;2023-05-10T05:49:30;3.10;;;2.90;;
434;SDS011;204;48.942;9.256;2023-05-10T05:52:00;3.80;;;3.60;;
434;SDS011;204;48.942;9.256;2023-05-10T05:54:26;2.90;;;2.70;;
434;SDS011;204;48.942;9.256;2023-05-10T05:56:56;3.37;;;3.20;;
434;SDS011;204;48.942;9.256;2023-05-10T05:59:22;3.00;;;2.73;;
434;SDS011;204;48.942;9.256;2023-05-10T06:01:48;3.73;;;3.50;;
434;SDS011;204;48.942;9.256;2023-05-10T06:04:14;3.60;;;3.27;;
434;SDS011;204;48.942;9.256;2023-05-10T06:06:40;3.17;;;2.97;;
434;SDS011;204;48.942;9.256;2023-05-10T06:09:07;3.60;;;3.40;;
434;SDS011;204;48.942;9.256;2023-05-10T06:11:33;3.60;;;3.40;;
434;SDS011;204;48.942;9.256;2023-05-10T06:13:59;3.07;;;2.87;;
434;SDS011;204;48.942;9.256;2023-05-10T06:16:25;3.30;;;3.10;;
434;SDS011;204;48.942;9.256;2023-05-10T06:18:51;3.60;;;3.10;;
434;SDS011;204;48.942;9.256;2023-05-10T06:21:16;3.90;;;3.70;;
434;SDS011;204;48.942;9.256;2023-05-10T06:23:42;4.63;;;3.03;;
434;SDS011;204;48.942;9.256;2023-05-10T06:26:07;3.70;;;3.50;;
434;SDS011;204;48.942;9.256;2023-05-10T06:28:33;3.00;;;2.80;;
434;SDS011;204;48.942;9.256;2023-05-10T06:30:59;3.03;;;2.83;;
434;SDS011;204;48.942;9.256;2023-05-10T06:33:25;2.90;;;2.70;;
434;SDS011;204;48.942;9.256;2023-05-10T06:35:50;4.97;;;3.63;;
434;SDS011;204;48.942;9.256;2023-05-10T06:38:16;4.33;;;2.60;;
434;SDS011;204;48.942;9.256;2023-05-10T06:40:42;4.77;;;3.10;;
434;SDS011;204;48.942;9.256;2023-05-10T06:43:08;3.50;;;3.30;;
434;SDS011;204;48.942;9.256;2023-05-10T06:45:34;3.30;;;3.10;;
434;SDS011;204;48.942;9.256;2023-05-10T06:47:59;4.40;;;2.67;;
434;SDS011;204;48.942;9.256;2023-05-10T06:50:25;3.33;;;2.43;;
434;SDS011;204;48.942;9.256;2023-05-10T06:52:51;2.97;;;2.30;;
434;SDS011;204;48.942;9.256;2023-05-10T06:55:17;3.27;;;2.90;;
434;SDS011;204;48.942;9.256;2023-05-10T06:57:42;3.90;;;3.50;;
434;SDS011;204;48.942;9.256;2023-05-10T07:00:08;3.27;;;3.00;;
434;SDS011;204;48.942;9.256;2023-05-10T07:02:34;4.33;;;2.43;;
434;SDS011;204;48.942;9.256;2023-05-10T07:05:00;3.60;;;2.70;;
434;SDS011;204;48.942;9.256;2023-05-10T07:07:27;2.40;;;2.20;;
434;SDS011;204;48.942;9.256;2023-05-10T07:09:52;2.63;;;2.43;;
434;SDS011;204;48.942;9.256;2023-05-10T07:12:18;2.00;;;1.90;;
434;SDS011;204;48.942;9.256;2023-05-10T07:14:44;2.80;;;2.20;;
434;SDS011;204;48.942;9.256;2023-05-10T07:17:10;22.40;;;15.10;;
434;SDS011;204;48.942;9.256;2023-05-10T07:19:35;6.57;;;6.17;;
434;SDS011;204;48.942;9.256;2023-05-10T07:22:01;4.70;;;2.67;;
434;SDS011;204;48.942;9.256;2023-05-10T07:24:27;2.07;;;1.93;;
434;SDS011;204;48.942;9.256;2023-05-10T07:26:52;4.37;;;4.10;;
434;SDS011;204;48.942;9.256;2023-05-10T07:29:18;4.97;;;4.07;;
434;SDS011;204;48.942;9.256;2023-05-10T07:31:43;5.20;;;5.00;;
434;SDS011;204;48.942;9.256;2023-05-10T07:34:09;6.60;;;4.33;;
434;SDS011;204;48.942;9.256;2023-05-10T07:36:35;9.30;;;8.33;;
434;SDS011;204;48.942;9.256;2023-05-10T07:39:00;4.60;;;4.03;;
434;SDS011;204;48.942;9.256;2023-05-10T07:41:26;5.97;;;3.40;;
434;SDS011;204;48.942;9.256;2023-05-10T07:43:52;3.40;;;2.50;;
434;SDS011;204;48.942;9.256;2023-05-10T07:46:17;6.00;;;1.30;;
434;SDS011;204;48.942;9.256;2023-05-10T07:48:44;2.10;;;1.60;;
434;SDS011;204;48.942;9.256;2023-05-10T07:51:10;2.30;;;1.60;;
434;SDS011;204;48.942;9.256;2023-05-10T07:53:36;1.83;;;1.50;;
434;SDS011;204;48.942;9.256;2023-05-10T07:56:19;3.13;;;1.30;;
434;SDS011;204;48.942;9.256;2023-05-10T07:58:47;2.20;;;1.10;;
434;SDS011;204;48.942;9.256;2023-05-10T08:01:13;3.77;;;2.50;;
434;SDS011;204;48.942;9.256;2023-05-10T08:03:38;7.70;;;3.70;;
434;SDS011;204;48.942;9.256;2023-05-10T08:06:04;3.90;;;2.50;;
434;SDS011;204;48.942;9.256;2023-05-10T08:08:30;1.47;;;1.37;;
434;SDS011;204;48.942;9.256;2023-05-10T08:10:55;1.40;;;1.30;;
434;SDS011;204;48.942;9.256;2023-05-10T08:13:21;1.47;;;1.37;;
434;SDS011;204;48.942;9.256;2023-05-10T08:15:46;3.47;;;0.87;;
434;SDS011;204;48.942;9.256;2023-05-10T08:18:12;2.53;;;1.30;;
434;SDS011;204;48.942;9.256;2023-05-10T08:20:38;2.37;;;0.80;;
434;SDS011;204;48.942;9.256;2023-05-10T08:23:03;2.40;;;0.70;;
434;SDS011;204;48.942;9.256;2023-05-10T08:25:29;3.93;;;0.80;;
434;SDS011;204;48.942;9.256;2023-05-10T08:27:54;1.00;;;1.00;;
434;SDS011;204;48.942;9.256;2023-05-10T08:30:20;1.20;;;0.57;;
434;SDS011;204;48.942;9.256;2023-05-10T08:32:45;2.63;;;0.73;;
434;SDS011;204;48.942;9.256;2023-05-10T08:35:11;2.00;;;0.90;;
434;SDS011;204;48.942;9.256;2023-05-10T08:37:37;3.07;;;0.77;;
434;SDS011;204;48.942;9.256;2023-05-10T08:40:02;0.60;;;0.40;;
434;SDS011;204;48.942;9.256;2023-05-10T08:42:28;0.50;;;0.50;;
434;SDS011;204;48.942;9.256;2023-05-10T08:44:57;4.00;;;0.60;;
434;SDS011;204;48.942;9.256;2023-05-10T08:47:24;2.53;;;0.60;;
434;SDS011;204;48.942;9.256;2023-05-10T08:49:50;0.93;;;0.50;;
434;SDS011;204;48.942;9.256;2023-05-10T08:52:17;1.00;;;0.90;;
434;SDS011;204;48.942;9.256;2023-05-10T08:54:43;1.40;;;1.30;;
434;SDS011;204;48.942;9.256;2023-05-10T08:57:08;0.70;;;0.60;;
434;SDS011;204;48.942;9.256;2023-05-10T08:59:35;1.00;;;0.73;;
434;SDS011;204;48.942;9.256;2023-05-10T09:02:04;1.37;;;0.70;;
434;SDS011;204;48.942;9.256;2023-05-10T09:04:31;0.63;;;0.50;;
434;SDS011;204;48.942;9.256;2023-05-10T09:06:56;1.83;;;0.90;;
434;SDS011;204;48.942;9.256;2023-05-10T09:09:22;0.47;;;0.43;;
434;SDS011;204;48.942;9.256;2023-05-10T09:11:50;0.90;;;0.70;;
434;SDS011;204;48.942;9.256;2023-05-10T09:14:16;2.17;;;0.70;;
434;SDS011;204;48.942;9.256;2023-05-10T09:16:43;1.23;;;0.73;;
434;SDS011;204;48.942;9.256;2023-05-10T09:19:09;4.27;;;0.80;;
434;SDS011;204;48.942;9.256;2023-05-10T09:21:35;0.80;;;0.70;;
434;SDS011;204;48.942;9.256;2023-05-10T09:24:04;1.10;;;0.60;;
434;SDS011;204;48.942;9.256;2023-05-10T09:26:31;1.67;;;0.87;;
434;SDS011;204;48.942;9.256;2023-05-10T09:28:57;0.90;;;0.50;;
434;SDS011;204;48.942;9.256;2023-05-10T09:31:24;1.53;;;0.60;;
434;SDS011;204;48.942;9.256;2023-05-10T09:33:52;1.10;;;1.00;;
434;SDS011;204;48.942;9.256;2023-05-10T09:36:18;2.03;;;0.70;;
434;SDS011;204;48.942;9.256;2023-05-10T09:38:47;1.33;;;0.90;;
434;SDS011;204;48.942;9.256;2023-05-10T09:43:43;2.23;;;0.93;;
434;SDS011;204;48.942;9.256;2023-05-10T09:46:09;1.13;;;0.80;;
434;SDS011;204;48.942;9.256;2023-05-10T09:48:39;1.33;;;0.80;;
434;SDS011;204;48.942;9.256;2023-05-10T09:51:18;0.90;;;0.70;;
434;SDS011;204;48.942;9.256;2023-05-10T09:53:47;0.80;;;0.70;;
434;SDS011;204;48.942;9.256;2023-05-10T09:56:32;0.80;;;0.70;;
434;SDS011;204;48.942;9.256;2023-05-10T09:59:03;0.60;;;0.50;;
434;SDS011;204;48.942;9.256;2023-05-10T10:01:29;2.57;;;0.90;;
434;SDS011;204;48.942;9.256;2023-05-10T10:03:55;2.20;;;0.80;;
434;SDS011;204;48.942;9.256;2023-05-10T10:06:22;0.40;;;0.40;;
434;SDS011;204;48.942;9.256;2023-05-10T10:08:48;1.20;;;0.80;;
434;SDS011;204;48.942;9.256;2023-05-10T10:11:15;0.83;;;0.60;;
434;SDS011;204;48.942;9.256;2023-05-10T10:13:41;1.50;;;0.67;;
434;SDS011;204;48.942;9.256;2023-05-10T10:16:06;1.77;;;0.50;;
434;SDS011;204;48.942;9.256;2023-05-10T10:18:33;1.27;;;0.70;;
434;SDS011;204;48.942;9.256;2023-05-10T10:21:03;0.87;;;0.40;;
434;SDS011;204;48.942;9.256;2023-05-10T10:23:34;0.60;;;0.50;;
434;SDS011;204;48.942;9.256;2023-05-10T10:26:00;1.20;;;0.70;;
434;SDS011;204;48.942;9.256;2023-05-10T10:31:00;1.67;;;0.50;;
434;SDS011;204;48.942;9.256;2023-05-10T10:36:24;1.30;;;0.50;;
434;SDS011;204;48.942;9.256;2023-05-10T10:41:30;0.77;;;0.63;;
434;SDS011;204;48.942;9.256;2023-05-10T11:00:38;0.90;;;0.70;;
434;SDS011;204;48.942;9.256;2023-05-10T11:05:44;0.60;;;0.53;;
434;SDS011;204;48.942;9.256;2023-05-10T11:16:12;1.53;;;0.60;;
434;SDS011;204;48.942;9.256;2023-05-10T11:21:26;0.93;;;0.70;;
434;SDS011;204;48.942;9.256;2023-05-10T11:23:53;3.87;;;0.73;;
434;SDS011;204;48.942;9.256;2023-05-10T11:26:23;0.90;;;0.70;;
434;SDS011;204;48.942;9.256;2023-05-10T11:28:51;0.40;;;0.40;;
434;SDS011;204;48.942;9.256;2023-05-10T11:31:22;0.70;;;0.70;;
434;SDS011;204;48.942;9.256;2023-05-10T11:36:15;1.10;;;1.00;;
434;SDS011;204;48.942;9.256;2023-05-10T11:39:00;1.10;;;0.50;;
434;SDS011;204;48.942;9.256;2023-05-10T11:41:27;1.63;;;0.70;;
434;SDS011;204;48.942;9.256;2023-05-10T11:43:54;2.50;;;0.80;;
434;SDS011;204;48.942;9.256;2023-05-10T11:46:21;0.83;;;0.63;;
434;SDS011;204;48.942;9.256;2023-05-10T11:48:49;3.40;;;1.13;;
434;SDS011;204;48.942;9.256;2023-05-10T11:51:19;1.53;;;0.90;;
434;SDS011;204;48.942;9.256;2023-05-10T11:53:45;2.40;;;0.60;;
434;SDS011;204;48.942;9.256;2023-05-10T11:56:11;0.90;;;0.60;;
434;SDS011;204;48.942;9.256;2023-05-10T11:58:37;3.77;;;1.23;;
434;SDS011;204;48.942;9.256;2023-05-10T12:01:05;0.90;;;0.90;;
434;SDS011;204;48.942;9.256;2023-05-10T12:03:32;1.00;;;0.80;;
434;SDS011;204;48.942;9.256;2023-05-10T12:05:59;2.40;;;1.00;;
434;SDS011;204;48.942;9.256;2023-05-10T12:08:26;3.90;;;1.30;;
434;SDS011;204;48.942;9.256;2023-05-10T12:10:53;1.20;;;1.17;;
434;SDS011;204;48.942;9.256;2023-05-10T12:13:28;2.60;;;1.07;;
434;SDS011;204;48.942;9.256;2023-05-10T12:15:54;1.57;;;0.90;;
434;SDS011;204;48.942;9.256;2023-05-10T12:18:23;3.13;;;0.97;;
434;SDS011;204;48.942;9.256;2023-05-10T12:20:51;2.93;;;1.57;;
434;SDS011;204;48.942;9.256;2023-05-10T12:23:18;3.33;;;1.50;;
434;SDS011;204;48.942;9.256;2023-05-10T12:25:45;4.67;;;1.40;;
434;SDS011;204;48.942;9.256;2023-05-10T12:28:11;2.00;;;1.90;;
434;SDS011;204;48.942;9.256;2023-05-10T12:30:37;1.80;;;1.33;;
434;SDS011;204;48.942;9.256;2023-05-10T12:33:07;2.43;;;1.50;;
434;SDS011;204;48.942;9.256;2023-05-10T12:35:33;7.10;;;1.80;;
434;SDS011;204;48.942;9.256;2023-05-10T12:38:26;2.50;;;1.40;;
434;SDS011;204;48.942;9.256;2023-05-10T12:40:54;1.30;;;1.20;;
434;SDS011;204;48.942;9.256;2023-05-10T12:43:20;2.17;;;1.33;;
434;SDS011;204;48.942;9.256;2023-05-10T12:45:46;4.17;;;1.33;;
434;SDS011;204;48.942;9.256;2023-05-10T12:48:13;2.53;;;1.30;;
434;SDS011;204;48.942;9.256;2023-05-10T12:50:40;3.23;;;1.10;;
434;SDS011;204;48.942;9.256;2023-05-10T12:53:05;2.40;;;0.80;;
434;SDS011;204;48.942;9.256;2023-05-10T12:55:31;2.30;;;0.87;;
434;SDS011;204;48.942;9.256;2023-05-10T12:57:56;2.73;;;0.80;;
434;SDS011;204;48.942;9.256;2023-05-10T13:00:22;0.90;;;0.70;;
434;SDS011;204;48.942;9.256;2023-05-10T13:02:48;0.80;;;0.70;;
434;SDS011;204;48.942;9.256;2023-05-10T13:05:13;1.40;;;1.03;;
434;SDS011;204;48.942;9.256;2023-05-10T13:07:39;0.70;;;0.50;;
434;SDS011;204;48.942;9.256;2023-05-10T13:10:05;1.30;;;0.90;;
434;SDS011;204;48.942;9.256;2023-05-10T13:12:31;2.40;;;1.00;;
434;SDS011;204;48.942;9.256;2023-05-10T13:14:57;1.70;;;0.50;;
434;SDS011;204;48.942;9.256;2023-05-10T13:17:23;1.30;;;0.63;;
434;SDS011;204;48.942;9.256;2023-05-10T13:19:50;1.20;;;0.90;;
434;SDS011;204;48.942;9.256;2023-05-10T13:22:15;1.27;;;0.87;;
434;SDS011;204;48.942;9.256;2023-05-10T13:24:41;2.87;;;0.80;;
434;SDS011;204;48.942;9.256;2023-05-10T13:27:06;1.80;;;1.00;;
434;SDS011;204;48.942;9.256;2023-05-10T13:29:32;1.23;;;0.93;;
434;SDS011;204;48.942;9.256;2023-05-10T13:31:58;3.30;;;1.00;;
434;SDS011;204;48.942;9.256;2023-05-10T13:34:23;2.73;;;0.87;;
434;SDS011;204;48.942;9.256;2023-05-10T13:36:49;0.83;;;0.60;;
434;SDS011;204;48.942;9.256;2023-05-10T13:39:15;0.80;;;0.70;;
434;SDS011;204;48.942;9.256;2023-05-10T13:41:41;0.90;;;0.60;;
434;SDS011;204;48.942;9.256;2023-05-10T13:44:07;1.67;;;1.00;;
434;SDS011;204;48.942;9.256;2023-05-10T13:46:32;1.03;;;0.63;;
434;SDS011;204;48.942;9.256;2023-05-10T13:48:58;3.47;;;0.93;;
434;SDS011;204;48.942;9.256;2023-05-10T13:51:24;1.17;;;0.70;;
434;SDS011;204;48.942;9.256;2023-05-10T13:53:49;1.63;;;1.00;;
434;SDS011;204;48.942;9.256;2023-05-10T13:56:15;1.90;;;0.80;;
434;SDS011;204;48.942;9.256;2023-05-10T13:58:41;1.67;;;0.93;;
434;SDS011;204;48.942;9.256;2023-05-10T14:01:06;1.43;;;0.87;;
434;SDS011;204;48.942;9.256;2023-05-10T14:03:32;0.93;;;0.77;;
434;SDS011;204;48.942;9.256;2023-05-10T14:05:58;1.10;;;0.60;;
434;SDS011;204;48.942;9.256;2023-05-10T14:08:23;1.03;;;0.77;;
434;SDS011;204;48.942;9.256;2023-05-10T14:10:49;2.20;;;1.00;;
434;SDS011;204;48.942;9.256;2023-05-10T14:13:15;1.57;;;1.20;;
434;SDS011;204;48.942;9.256;2023-05-10T14:15:41;0.73;;;0.70;;
434;SDS011;204;48.942;9.256;2023-05-10T14:18:06;0.73;;;0.70;;
434;SDS011;204;48.942;9.256;2023-05-10T14:20:32;0.93;;;0.70;;
434;SDS011;204;48.942;9.256;2023-05-10T14:22:58;1.40;;;0.60;;
434;SDS011;204;48.942;9.256;2023-05-10T14:25:24;1.53;;;0.90;;
434;SDS011;204;48.942;9.256;2023-05-10T14:27:50;2.00;;;0.80;;
434;SDS011;204;48.942;9.256;2023-05-10T14:30:16;1.40;;;0.90;;
434;SDS011;204;48.942;9.256;2023-05-10T14:32:42;3.40;;;0.90;;
434;SDS011;204;48.942;9.256;2023-05-10T14:35:07;1.00;;;0.90;;
434;SDS011;204;48.942;9.256;2023-05-10T14:37:33;3.70;;;1.07;;
434;SDS011;204;48.942;9.256;2023-05-10T14:39:59;2.07;;;1.20;;
434;SDS011;204;48.942;9.256;2023-05-10T14:42:25;2.73;;;0.83;;
434;SDS011;204;48.942;9.256;2023-05-10T14:44:51;1.10;;;0.70;;
434;SDS011;204;48.942;9.256;2023-05-10T14:47:16;1.93;;;0.90;;
434;SDS011;204;48.942;9.256;2023-05-10T14:49:42;1.63;;;0.60;;
434;SDS011;204;48.942;9.256;2023-05-10T14:52:07;1.73;;;0.90;;
434;SDS011;204;48.942;9.256;2023-05-10T14:54:33;1.73;;;0.70;;
434;SDS011;204;48.942;9.256;2023-05-10T14:56:58;1.47;;;0.90;;
434;SDS011;204;48.942;9.256;2023-05-10T14:59:25;2.00;;;0.90;;
434;SDS011;204;48.942;9.256;2023-05-10T15:01:50;1.33;;;1.00;;
434;SDS011;204;48.942;9.256;2023-05-10T15:04:16;3.60;;;2.80;;
434;SDS011;204;48.942;9.256;2023-05-10T15:06:42;1.20;;;0.70;;
434;SDS011;204;48.942;9.256;2023-05-10T15:09:07;2.17;;;0.80;;
434;SDS011;204;48.942;9.256;2023-05-10T15:11:33;3.27;;;0.90;;
434;SDS011;204;48.942;9.256;2023-05-10T15:14:00;1.83;;;1.20;;
434;SDS011;204;48.942;9.256;2023-05-10T15:16:26;2.93;;;2.73;;
434;SDS011;204;48.942;9.256;2023-05-10T15:18:52;2.80;;;1.20;;
434;SDS011;204;48.942;9.256;2023-05-10T15:21:18;1.40;;;0.80;;
434;SDS011;204;48.942;9.256;2023-05-10T15:23:43;2.20;;;0.90;;
434;SDS011;204;48.942;9.256;2023-05-10T15:26:09;1.50;;;1.20;;
434;SDS011;204;48.942;9.256;2023-05-10T15:28:34;1.30;;;1.00;;
434;SDS011;204;48.942;9.256;2023-05-10T15:31:00;0.93;;;0.70;;
434;SDS011;204;48.942;9.256;2023-05-10T15:33:25;1.13;;;1.00;;
434;SDS011;204;48.942;9.256;2023-05-10T15:35:52;14.40;;;13.63;;
434;SDS011;204;48.942;9.256;2023-05-10T15:38:18;7.57;;;6.50;;
434;SDS011;204;48.942;9.256;2023-05-10T15:40:44;1.27;;;0.80;;
434;SDS011;204;48.942;9.256;2023-05-10T15:43:10;2.20;;;0.90;;
434;SDS011;204;48.942;9.256;2023-05-10T15:45:35;4.93;;;1.20;;
434;SDS011;204;48.942;9.256;2023-05-10T15:48:01;1.10;;;0.77;;
434;SDS011;204;48.942;9.256;2023-05-10T15:50:27;0.83;;;0.83;;
434;SDS011;204;48.942;9.256;2023-05-10T15:52:53;2.30;;;1.20;;
434;SDS011;204;48.942;9.256;2023-05-10T15:55:18;1.37;;;0.60;;
434;SDS011;204;48.942;9.256;2023-05-10T15:57:44;2.40;;;1.13;;
434;SDS011;204;48.942;9.256;2023-05-10T16:00:11;1.00;;;0.63;;
434;SDS011;204;48.942;9.256;2023-05-10T16:02:38;4.10;;;0.80;;
434;SDS011;204;48.942;9.256;2023-05-10T16:05:07;3.10;;;1.60;;
434;SDS011;204;48.942;9.256;2023-05-10T16:07:33;1.73;;;0.80;;
434;SDS011;204;48.942;9.256;2023-05-10T16:09:59;2.83;;;1.03;;
434;SDS011;204;48.942;9.256;2023-05-10T16:12:28;1.43;;;0.90;;
434;SDS011;204;48.942;9.256;2023-05-10T16:14:54;1.07;;;1.03;;
434;SDS011;204;48.942;9.256;2023-05-10T16:17:19;2.73;;;0.90;;
434;SDS011;204;48.942;9.256;2023-05-10T16:19:45;1.10;;;1.00;;
434;SDS011;204;48.942;9.256;2023-05-10T16:22:11;1.23;;;0.70;;
434;SDS011;204;48.942;9.256;2023-05-10T16:24:37;1.63;;;0.87;;
434;SDS011;204;48.942;9.256;2023-05-10T16:27:02;1.23;;;0.70;;
434;SDS011;204;48.942;9.256;2023-05-10T16:29:28;0.93;;;0.60;;
434;SDS011;204;48.942;9.256;2023-05-10T16:31:53;2.77;;;0.90;;
434;SDS011;204;48.942;9.256;2023-05-10T16:34:19;2.40;;;0.60;;
434;SDS011;204;48.942;9.256;2023-05-10T16:36:48;4.10;;;1.30;;
434;SDS011;204;48.942;9.256;2023-05-10T16:39:13;2.97;;;1.93;;
434;SDS011;204;48.942;9.256;2023-05-10T16:41:39;2.00;;;1.70;;
434;SDS011;204;48.942;9.256;2023-05-10T16:44:04;2.67;;;1.63;;